• Join FlightAware (Why Join?)
  • Login
  • US Flag 
12:15AM EST


 

Airport Tracker/Info


-or-


 

Live Flight TrackerFlight Track Log ✈ KAL1338 ✈ 02-Jan-2014 ✈ RKJY / RSU - RKSS / GMP

Flight Track Log - Related Links

Times and Time Zones

All times are in EST time to prevent confusion due to time zone crossing. See the KAL1338 flight status page for this flight to view local times or setup timezone preferences in your user account.

Time Position Orientation Groundspeed Altitude Reporting Facility
EST Latitude Longitude Course Direction KTS MPH feet Rate Location/Type
04:16AM 35.1346 127.5287 346° North  Level Estimated
04:17AM 35.2083 127.5069 346° North  Level Estimated
04:18AM 35.2820 127.4851 346° North  Level Estimated
04:19AM 35.3557 127.4633 346° North  Level Estimated
04:20AM 35.4530 127.4344 346° North  Level Estimated
04:21AM 35.5504 127.4054 346° North  Level Estimated
04:22AM 35.6477 127.3763 346° North  Level Estimated
04:23AM 35.7450 127.3472 346° North  Level Estimated
04:24AM 35.8424 127.3180 346° North  Level Estimated
04:25AM 35.9397 127.2887 346° North  Level Estimated
04:26AM 36.0370 127.2594 346° North  Level Estimated
04:27AM 36.1343 127.2299 346° North  Level Estimated
04:28AM 36.2316 127.2004 346° North  Level Estimated
04:29AM 36.3289 127.1709 346° North  Level Estimated
04:30AM 36.4262 127.1413 346° North  Level Estimated
04:31AM 36.5235 127.1115 346° North  Level Estimated
04:32AM 36.6208 127.0817 346° North  Level Estimated
04:33AM 36.7180 127.0519 346° North  Level Estimated
04:34AM 36.8153 127.0219 346° North  Level Estimated
04:35AM 36.9125 126.9919 346° North  Level Estimated
04:36AM 37.0098 126.9618 346° North  Level Estimated
04:37AM 37.1070 126.9317 346° North  Level Estimated
04:38AM 37.2042 126.9014 346° North  Level Estimated
04:39AM 37.3014 126.8711 346° North  Level Estimated
04:40AM 37.3987 126.8407 346° North  Level Estimated
04:41AM 37.4958 126.8102 346° North  Level Estimated
04:42AM 37.5583 126.7906 346° North  Level Estimated
04:43AM 37.5583 126.7906 288° West  Level Estimated
04:44AM 37.5583 126.7906 288° West  Level Estimated
04:45AM 37.5583 126.7906 288° West  Level Estimated
04:46AM 37.5583 126.7906 288° West  Level Estimated
04:47AM 37.5583 126.7906 288° West  Level Estimated
04:48AM 37.5583 126.7906 288° West  Level Estimated
04:49AM 37.5583 126.7906 288° West  Level Estimated
04:50AM 37.5583 126.7906 288° West  Level Estimated
04:51AM 37.5583 126.7906 288° West  Level Estimated
04:52AM 37.5583 126.7906 288° West  Level Estimated
04:53AM 37.5583 126.7906 288° West  Level Estimated
04:54AM 37.5583 126.7906 288° West  Level Estimated
04:55AM 37.5583 126.7906 288° West  Level Estimated